sensor_id;sensor_type;location;lat;lon;timestamp;P1;durP1;ratioP1;P2;durP2;ratioP2
59424;SDS011;45231;44.826;20.312;2023-03-23T00:02:05;49.28;;;33.05;;
59424;SDS011;45231;44.826;20.312;2023-03-23T00:04:31;50.67;;;33.58;;
59424;SDS011;45231;44.826;20.312;2023-03-23T00:06:58;50.10;;;34.28;;
59424;SDS011;45231;44.826;20.312;2023-03-23T00:09:27;56.55;;;35.92;;
59424;SDS011;45231;44.826;20.312;2023-03-23T00:11:55;60.63;;;37.38;;
59424;SDS011;45231;44.826;20.312;2023-03-23T00:14:22;53.00;;;35.70;;
59424;SDS011;45231;44.826;20.312;2023-03-23T00:16:49;54.83;;;36.47;;
59424;SDS011;45231;44.826;20.312;2023-03-23T00:19:16;56.00;;;36.33;;
59424;SDS011;45231;44.826;20.312;2023-03-23T00:21:44;49.08;;;32.42;;
59424;SDS011;45231;44.826;20.312;2023-03-23T00:24:11;43.50;;;29.17;;
59424;SDS011;45231;44.826;20.312;2023-03-23T00:26:39;50.83;;;33.00;;
59424;SDS011;45231;44.826;20.312;2023-03-23T00:29:06;43.05;;;29.52;;
59424;SDS011;45231;44.826;20.312;2023-03-23T00:31:32;44.50;;;28.15;;
59424;SDS011;45231;44.826;20.312;2023-03-23T00:34:00;48.05;;;32.08;;
59424;SDS011;45231;44.826;20.312;2023-03-23T00:36:29;47.67;;;32.40;;
59424;SDS011;45231;44.826;20.312;2023-03-23T00:38:55;48.45;;;33.25;;
59424;SDS011;45231;44.826;20.312;2023-03-23T00:41:23;48.85;;;33.47;;
59424;SDS011;45231;44.826;20.312;2023-03-23T00:43:52;50.38;;;33.38;;
59424;SDS011;45231;44.826;20.312;2023-03-23T00:46:18;59.47;;;34.03;;
59424;SDS011;45231;44.826;20.312;2023-03-23T00:48:45;50.17;;;32.92;;
59424;SDS011;45231;44.826;20.312;2023-03-23T00:51:12;51.53;;;32.10;;
59424;SDS011;45231;44.826;20.312;2023-03-23T00:53:39;49.28;;;30.92;;
59424;SDS011;45231;44.826;20.312;2023-03-23T00:56:05;45.78;;;30.63;;
59424;SDS011;45231;44.826;20.312;2023-03-23T00:58:32;48.35;;;33.97;;
59424;SDS011;45231;44.826;20.312;2023-03-23T01:00:58;42.42;;;29.02;;
59424;SDS011;45231;44.826;20.312;2023-03-23T01:03:24;42.78;;;28.92;;
59424;SDS011;45231;44.826;20.312;2023-03-23T01:05:51;41.65;;;28.20;;
59424;SDS011;45231;44.826;20.312;2023-03-23T01:10:44;50.30;;;33.88;;
59424;SDS011;45231;44.826;20.312;2023-03-23T01:13:10;41.50;;;28.63;;
59424;SDS011;45231;44.826;20.312;2023-03-23T01:15:37;48.70;;;34.00;;
59424;SDS011;45231;44.826;20.312;2023-03-23T01:18:03;43.47;;;31.17;;
59424;SDS011;45231;44.826;20.312;2023-03-23T01:20:29;50.22;;;33.33;;
59424;SDS011;45231;44.826;20.312;2023-03-23T01:22:59;47.85;;;33.15;;
59424;SDS011;45231;44.826;20.312;2023-03-23T01:25:34;46.20;;;31.33;;
59424;SDS011;45231;44.826;20.312;2023-03-23T01:28:00;59.63;;;37.28;;
59424;SDS011;45231;44.826;20.312;2023-03-23T01:30:26;54.33;;;37.97;;
59424;SDS011;45231;44.826;20.312;2023-03-23T01:32:53;59.60;;;38.92;;
59424;SDS011;45231;44.826;20.312;2023-03-23T01:35:20;53.28;;;36.13;;
59424;SDS011;45231;44.826;20.312;2023-03-23T01:37:46;60.13;;;39.07;;
59424;SDS011;45231;44.826;20.312;2023-03-23T01:40:13;55.63;;;36.00;;
59424;SDS011;45231;44.826;20.312;2023-03-23T01:42:39;53.22;;;36.20;;
59424;SDS011;45231;44.826;20.312;2023-03-23T01:50:17;51.58;;;35.30;;
59424;SDS011;45231;44.826;20.312;2023-03-23T01:52:45;61.55;;;35.40;;
59424;SDS011;45231;44.826;20.312;2023-03-23T01:55:11;59.35;;;37.90;;
59424;SDS011;45231;44.826;20.312;2023-03-23T02:02:33;57.40;;;36.28;;
59424;SDS011;45231;44.826;20.312;2023-03-23T02:05:02;55.97;;;37.47;;
59424;SDS011;45231;44.826;20.312;2023-03-23T02:07:30;58.28;;;37.20;;
59424;SDS011;45231;44.826;20.312;2023-03-23T02:12:24;52.08;;;34.55;;
59424;SDS011;45231;44.826;20.312;2023-03-23T02:14:51;54.42;;;36.17;;
59424;SDS011;45231;44.826;20.312;2023-03-23T02:25:18;53.53;;;37.58;;
59424;SDS011;45231;44.826;20.312;2023-03-23T02:32:49;55.28;;;42.83;;
59424;SDS011;45231;44.826;20.312;2023-03-23T02:35:22;53.95;;;43.72;;
59424;SDS011;45231;44.826;20.312;2023-03-23T02:37:55;56.25;;;42.58;;
59424;SDS011;45231;44.826;20.312;2023-03-23T02:47:41;48.92;;;33.60;;
59424;SDS011;45231;44.826;20.312;2023-03-23T02:50:08;56.63;;;42.50;;
59424;SDS011;45231;44.826;20.312;2023-03-23T02:52:36;55.13;;;43.35;;
59424;SDS011;45231;44.826;20.312;2023-03-23T02:55:03;54.67;;;38.90;;
59424;SDS011;45231;44.826;20.312;2023-03-23T02:57:30;50.63;;;36.65;;
59424;SDS011;45231;44.826;20.312;2023-03-23T02:59:56;50.33;;;35.80;;
59424;SDS011;45231;44.826;20.312;2023-03-23T03:02:32;53.40;;;35.80;;
59424;SDS011;45231;44.826;20.312;2023-03-23T03:07:47;51.95;;;35.15;;
59424;SDS011;45231;44.826;20.312;2023-03-23T03:10:24;51.38;;;40.05;;
59424;SDS011;45231;44.826;20.312;2023-03-23T03:15:31;47.25;;;33.45;;
59424;SDS011;45231;44.826;20.312;2023-03-23T03:20:25;48.13;;;33.45;;
59424;SDS011;45231;44.826;20.312;2023-03-23T03:22:53;51.65;;;34.65;;
59424;SDS011;45231;44.826;20.312;2023-03-23T03:25:19;49.00;;;34.05;;
59424;SDS011;45231;44.826;20.312;2023-03-23T03:27:48;52.40;;;36.38;;
59424;SDS011;45231;44.826;20.312;2023-03-23T03:30:17;51.05;;;36.00;;
59424;SDS011;45231;44.826;20.312;2023-03-23T03:32:46;52.33;;;36.55;;
59424;SDS011;45231;44.826;20.312;2023-03-23T03:35:14;51.45;;;35.95;;
59424;SDS011;45231;44.826;20.312;2023-03-23T03:37:40;50.05;;;36.38;;
59424;SDS011;45231;44.826;20.312;2023-03-23T03:40:07;48.25;;;35.63;;
59424;SDS011;45231;44.826;20.312;2023-03-23T03:42:39;51.35;;;36.50;;
59424;SDS011;45231;44.826;20.312;2023-03-23T03:45:07;53.88;;;37.70;;
59424;SDS011;45231;44.826;20.312;2023-03-23T03:47:33;60.08;;;40.03;;
59424;SDS011;45231;44.826;20.312;2023-03-23T03:50:00;59.55;;;41.58;;
59424;SDS011;45231;44.826;20.312;2023-03-23T03:52:26;57.27;;;39.63;;
59424;SDS011;45231;44.826;20.312;2023-03-23T03:54:52;60.33;;;41.83;;
59424;SDS011;45231;44.826;20.312;2023-03-23T03:57:18;72.05;;;43.92;;
59424;SDS011;45231;44.826;20.312;2023-03-23T03:59:45;67.15;;;42.50;;
59424;SDS011;45231;44.826;20.312;2023-03-23T04:02:12;66.93;;;44.67;;
59424;SDS011;45231;44.826;20.312;2023-03-23T04:07:08;65.15;;;39.05;;
59424;SDS011;45231;44.826;20.312;2023-03-23T04:14:27;65.95;;;43.17;;
59424;SDS011;45231;44.826;20.312;2023-03-23T04:16:53;66.70;;;43.22;;
59424;SDS011;45231;44.826;20.312;2023-03-23T04:19:22;68.47;;;49.67;;
59424;SDS011;45231;44.826;20.312;2023-03-23T04:21:48;66.07;;;45.58;;
59424;SDS011;45231;44.826;20.312;2023-03-23T04:24:15;65.22;;;43.40;;
59424;SDS011;45231;44.826;20.312;2023-03-23T04:29:07;69.63;;;43.50;;
59424;SDS011;45231;44.826;20.312;2023-03-23T04:31:34;66.55;;;44.28;;
59424;SDS011;45231;44.826;20.312;2023-03-23T04:36:27;64.88;;;43.03;;
59424;SDS011;45231;44.826;20.312;2023-03-23T04:38:58;68.35;;;43.22;;
59424;SDS011;45231;44.826;20.312;2023-03-23T04:41:25;62.00;;;44.28;;
59424;SDS011;45231;44.826;20.312;2023-03-23T04:43:52;63.40;;;42.70;;
59424;SDS011;45231;44.826;20.312;2023-03-23T04:46:19;65.10;;;42.42;;
59424;SDS011;45231;44.826;20.312;2023-03-23T04:48:46;67.97;;;45.65;;
59424;SDS011;45231;44.826;20.312;2023-03-23T04:51:12;58.55;;;41.58;;
59424;SDS011;45231;44.826;20.312;2023-03-23T04:53:39;59.45;;;41.05;;
59424;SDS011;45231;44.826;20.312;2023-03-23T04:56:06;60.33;;;41.63;;
59424;SDS011;45231;44.826;20.312;2023-03-23T04:58:32;63.38;;;43.60;;
59424;SDS011;45231;44.826;20.312;2023-03-23T05:01:01;55.40;;;39.72;;
59424;SDS011;45231;44.826;20.312;2023-03-23T05:03:29;91.90;;;56.25;;
59424;SDS011;45231;44.826;20.312;2023-03-23T05:05:55;81.37;;;52.10;;
59424;SDS011;45231;44.826;20.312;2023-03-23T05:08:22;59.40;;;40.00;;
59424;SDS011;45231;44.826;20.312;2023-03-23T05:10:52;58.40;;;40.65;;
59424;SDS011;45231;44.826;20.312;2023-03-23T05:13:19;55.83;;;40.55;;
59424;SDS011;45231;44.826;20.312;2023-03-23T05:15:45;52.67;;;37.25;;
59424;SDS011;45231;44.826;20.312;2023-03-23T05:18:11;50.33;;;36.30;;
59424;SDS011;45231;44.826;20.312;2023-03-23T05:20:38;52.63;;;37.25;;
59424;SDS011;45231;44.826;20.312;2023-03-23T05:23:04;50.80;;;37.55;;
59424;SDS011;45231;44.826;20.312;2023-03-23T05:25:30;50.42;;;38.95;;
59424;SDS011;45231;44.826;20.312;2023-03-23T05:28:01;49.47;;;37.50;;
59424;SDS011;45231;44.826;20.312;2023-03-23T05:30:27;46.83;;;36.80;;
59424;SDS011;45231;44.826;20.312;2023-03-23T05:32:54;48.08;;;37.13;;
59424;SDS011;45231;44.826;20.312;2023-03-23T05:35:20;49.35;;;37.25;;
59424;SDS011;45231;44.826;20.312;2023-03-23T05:37:47;50.60;;;38.20;;
59424;SDS011;45231;44.826;20.312;2023-03-23T05:40:13;46.83;;;37.30;;
59424;SDS011;45231;44.826;20.312;2023-03-23T05:42:40;47.60;;;36.47;;
59424;SDS011;45231;44.826;20.312;2023-03-23T05:45:07;44.78;;;35.78;;
59424;SDS011;45231;44.826;20.312;2023-03-23T05:47:34;43.13;;;35.80;;
59424;SDS011;45231;44.826;20.312;2023-03-23T05:50:00;46.38;;;37.28;;
59424;SDS011;45231;44.826;20.312;2023-03-23T05:52:27;49.85;;;35.90;;
59424;SDS011;45231;44.826;20.312;2023-03-23T05:54:53;46.58;;;36.38;;
59424;SDS011;45231;44.826;20.312;2023-03-23T05:57:19;45.10;;;35.53;;
59424;SDS011;45231;44.826;20.312;2023-03-23T05:59:47;42.30;;;34.55;;
59424;SDS011;45231;44.826;20.312;2023-03-23T06:02:13;46.10;;;35.30;;
59424;SDS011;45231;44.826;20.312;2023-03-23T06:04:39;42.72;;;34.85;;
59424;SDS011;45231;44.826;20.312;2023-03-23T06:09:32;44.70;;;36.30;;
59424;SDS011;45231;44.826;20.312;2023-03-23T06:11:58;48.40;;;33.78;;
59424;SDS011;45231;44.826;20.312;2023-03-23T06:19:17;42.08;;;33.45;;
59424;SDS011;45231;44.826;20.312;2023-03-23T06:21:43;42.22;;;33.33;;
59424;SDS011;45231;44.826;20.312;2023-03-23T06:24:10;39.08;;;32.25;;
59424;SDS011;45231;44.826;20.312;2023-03-23T06:26:38;38.15;;;32.30;;
59424;SDS011;45231;44.826;20.312;2023-03-23T06:29:06;42.20;;;32.10;;
59424;SDS011;45231;44.826;20.312;2023-03-23T06:31:47;38.70;;;32.83;;
59424;SDS011;45231;44.826;20.312;2023-03-23T06:34:13;39.55;;;31.08;;
59424;SDS011;45231;44.826;20.312;2023-03-23T06:36:39;40.00;;;30.80;;
59424;SDS011;45231;44.826;20.312;2023-03-23T06:39:08;33.42;;;29.58;;
59424;SDS011;45231;44.826;20.312;2023-03-23T06:41:34;36.67;;;28.70;;
59424;SDS011;45231;44.826;20.312;2023-03-23T06:44:01;33.78;;;28.15;;
59424;SDS011;45231;44.826;20.312;2023-03-23T06:46:27;37.15;;;29.77;;
59424;SDS011;45231;44.826;20.312;2023-03-23T06:48:54;38.03;;;29.48;;
59424;SDS011;45231;44.826;20.312;2023-03-23T06:51:20;37.63;;;29.13;;
59424;SDS011;45231;44.826;20.312;2023-03-23T06:53:46;35.28;;;29.85;;
59424;SDS011;45231;44.826;20.312;2023-03-23T06:56:13;34.90;;;30.10;;
59424;SDS011;45231;44.826;20.312;2023-03-23T06:58:39;36.05;;;29.67;;
59424;SDS011;45231;44.826;20.312;2023-03-23T07:01:06;35.50;;;29.13;;
59424;SDS011;45231;44.826;20.312;2023-03-23T07:03:33;33.67;;;27.95;;
59424;SDS011;45231;44.826;20.312;2023-03-23T07:05:59;33.63;;;29.42;;
59424;SDS011;45231;44.826;20.312;2023-03-23T07:08:25;35.42;;;28.42;;
59424;SDS011;45231;44.826;20.312;2023-03-23T07:10:52;32.67;;;29.17;;
59424;SDS011;45231;44.826;20.312;2023-03-23T07:13:18;36.75;;;27.60;;
59424;SDS011;45231;44.826;20.312;2023-03-23T07:15:45;31.60;;;28.05;;
59424;SDS011;45231;44.826;20.312;2023-03-23T07:18:11;33.17;;;28.20;;
59424;SDS011;45231;44.826;20.312;2023-03-23T07:20:37;32.15;;;27.50;;
59424;SDS011;45231;44.826;20.312;2023-03-23T07:23:04;32.03;;;28.52;;
59424;SDS011;45231;44.826;20.312;2023-03-23T07:25:31;35.67;;;29.65;;
59424;SDS011;45231;44.826;20.312;2023-03-23T07:27:58;35.05;;;28.25;;
59424;SDS011;45231;44.826;20.312;2023-03-23T07:30:25;34.42;;;30.75;;
59424;SDS011;45231;44.826;20.312;2023-03-23T07:32:51;34.78;;;28.70;;
59424;SDS011;45231;44.826;20.312;2023-03-23T07:35:18;33.00;;;27.38;;
59424;SDS011;45231;44.826;20.312;2023-03-23T07:37:44;28.88;;;24.95;;
59424;SDS011;45231;44.826;20.312;2023-03-23T07:40:13;33.13;;;24.73;;
59424;SDS011;45231;44.826;20.312;2023-03-23T07:42:43;25.65;;;21.63;;
59424;SDS011;45231;44.826;20.312;2023-03-23T07:45:12;21.83;;;18.45;;
59424;SDS011;45231;44.826;20.312;2023-03-23T07:47:39;23.30;;;19.23;;
59424;SDS011;45231;44.826;20.312;2023-03-23T07:50:06;19.45;;;17.05;;
59424;SDS011;45231;44.826;20.312;2023-03-23T07:52:33;23.42;;;16.52;;
59424;SDS011;45231;44.826;20.312;2023-03-23T07:55:00;20.88;;;16.40;;
59424;SDS011;45231;44.826;20.312;2023-03-23T07:57:27;20.85;;;15.80;;
59424;SDS011;45231;44.826;20.312;2023-03-23T07:59:53;20.38;;;14.73;;
59424;SDS011;45231;44.826;20.312;2023-03-23T08:02:20;22.33;;;15.63;;
59424;SDS011;45231;44.826;20.312;2023-03-23T08:04:46;19.65;;;14.63;;
59424;SDS011;45231;44.826;20.312;2023-03-23T08:07:12;20.15;;;15.35;;
59424;SDS011;45231;44.826;20.312;2023-03-23T08:09:41;14.63;;;12.68;;
59424;SDS011;45231;44.826;20.312;2023-03-23T08:12:07;17.75;;;12.27;;
59424;SDS011;45231;44.826;20.312;2023-03-23T08:14:33;16.10;;;12.90;;
59424;SDS011;45231;44.826;20.312;2023-03-23T08:16:59;16.08;;;12.93;;
59424;SDS011;45231;44.826;20.312;2023-03-23T08:19:26;22.85;;;13.10;;
59424;SDS011;45231;44.826;20.312;2023-03-23T08:21:52;30.05;;;12.25;;
59424;SDS011;45231;44.826;20.312;2023-03-23T08:24:18;15.95;;;11.52;;
59424;SDS011;45231;44.826;20.312;2023-03-23T08:26:44;17.10;;;15.02;;
59424;SDS011;45231;44.826;20.312;2023-03-23T08:29:11;25.85;;;18.85;;
59424;SDS011;45231;44.826;20.312;2023-03-23T08:31:38;22.35;;;19.50;;
59424;SDS011;45231;44.826;20.312;2023-03-23T08:34:04;21.85;;;18.50;;
59424;SDS011;45231;44.826;20.312;2023-03-23T08:36:31;26.88;;;19.35;;
59424;SDS011;45231;44.826;20.312;2023-03-23T08:38:58;25.23;;;18.35;;
59424;SDS011;45231;44.826;20.312;2023-03-23T08:41:24;22.30;;;18.48;;
59424;SDS011;45231;44.826;20.312;2023-03-23T08:43:50;24.15;;;19.58;;
59424;SDS011;45231;44.826;20.312;2023-03-23T08:46:17;23.10;;;18.95;;
59424;SDS011;45231;44.826;20.312;2023-03-23T08:48:44;31.42;;;19.52;;
59424;SDS011;45231;44.826;20.312;2023-03-23T08:51:11;23.80;;;17.95;;
59424;SDS011;45231;44.826;20.312;2023-03-23T08:53:37;25.45;;;18.52;;
59424;SDS011;45231;44.826;20.312;2023-03-23T08:56:04;23.88;;;18.13;;
59424;SDS011;45231;44.826;20.312;2023-03-23T08:58:30;164.85;;;49.03;;
59424;SDS011;45231;44.826;20.312;2023-03-23T09:00:57;25.42;;;18.38;;
59424;SDS011;45231;44.826;20.312;2023-03-23T09:03:23;25.90;;;18.27;;
59424;SDS011;45231;44.826;20.312;2023-03-23T09:05:50;25.65;;;19.60;;
59424;SDS011;45231;44.826;20.312;2023-03-23T09:08:16;22.67;;;17.60;;
59424;SDS011;45231;44.826;20.312;2023-03-23T09:10:42;20.10;;;14.00;;
59424;SDS011;45231;44.826;20.312;2023-03-23T09:13:08;20.98;;;16.10;;
59424;SDS011;45231;44.826;20.312;2023-03-23T09:15:34;23.17;;;14.93;;
59424;SDS011;45231;44.826;20.312;2023-03-23T09:18:01;25.17;;;16.17;;
59424;SDS011;45231;44.826;20.312;2023-03-23T09:20:28;28.85;;;14.25;;
59424;SDS011;45231;44.826;20.312;2023-03-23T09:22:55;20.70;;;16.25;;
59424;SDS011;45231;44.826;20.312;2023-03-23T09:25:23;20.35;;;14.63;;
59424;SDS011;45231;44.826;20.312;2023-03-23T09:27:51;19.60;;;15.40;;
59424;SDS011;45231;44.826;20.312;2023-03-23T09:30:18;18.30;;;14.85;;
59424;SDS011;45231;44.826;20.312;2023-03-23T09:32:45;17.67;;;14.80;;
59424;SDS011;45231;44.826;20.312;2023-03-23T09:35:13;17.65;;;14.90;;
59424;SDS011;45231;44.826;20.312;2023-03-23T09:37:43;18.02;;;13.05;;
59424;SDS011;45231;44.826;20.312;2023-03-23T09:40:45;16.30;;;12.25;;
59424;SDS011;45231;44.826;20.312;2023-03-23T09:50:28;36.80;;;13.73;;
59424;SDS011;45231;44.826;20.312;2023-03-23T09:53:00;17.40;;;12.90;;
59424;SDS011;45231;44.826;20.312;2023-03-23T09:55:28;16.35;;;13.50;;
59424;SDS011;45231;44.826;20.312;2023-03-23T09:58:10;21.25;;;12.70;;
59424;SDS011;45231;44.826;20.312;2023-03-23T10:00:42;15.88;;;11.05;;
59424;SDS011;45231;44.826;20.312;2023-03-23T10:05:50;15.82;;;11.30;;
59424;SDS011;45231;44.826;20.312;2023-03-23T10:08:20;15.75;;;11.95;;
59424;SDS011;45231;44.826;20.312;2023-03-23T10:10:55;18.17;;;11.63;;
59424;SDS011;45231;44.826;20.312;2023-03-23T10:15:54;15.30;;;10.48;;
59424;SDS011;45231;44.826;20.312;2023-03-23T10:18:27;17.17;;;10.07;;
59424;SDS011;45231;44.826;20.312;2023-03-23T10:20:59;13.52;;;10.55;;
59424;SDS011;45231;44.826;20.312;2023-03-23T10:28:58;14.15;;;9.07;;
59424;SDS011;45231;44.826;20.312;2023-03-23T10:31:30;14.05;;;9.95;;
59424;SDS011;45231;44.826;20.312;2023-03-23T10:33:59;13.00;;;8.82;;
59424;SDS011;45231;44.826;20.312;2023-03-23T10:36:28;11.90;;;8.68;;
59424;SDS011;45231;44.826;20.312;2023-03-23T10:41:29;13.43;;;7.32;;
59424;SDS011;45231;44.826;20.312;2023-03-23T10:43:56;12.93;;;7.35;;
59424;SDS011;45231;44.826;20.312;2023-03-23T10:48:48;13.13;;;7.65;;
59424;SDS011;45231;44.826;20.312;2023-03-23T10:51:16;11.40;;;7.63;;
59424;SDS011;45231;44.826;20.312;2023-03-23T10:53:45;9.13;;;7.10;;
59424;SDS011;45231;44.826;20.312;2023-03-23T10:56:25;12.48;;;7.90;;
59424;SDS011;45231;44.826;20.312;2023-03-23T10:58:52;10.32;;;7.40;;
59424;SDS011;45231;44.826;20.312;2023-03-23T11:01:19;10.80;;;7.40;;
59424;SDS011;45231;44.826;20.312;2023-03-23T11:03:47;9.73;;;7.38;;
59424;SDS011;45231;44.826;20.312;2023-03-23T11:06:23;9.75;;;7.00;;
59424;SDS011;45231;44.826;20.312;2023-03-23T11:13:47;11.82;;;7.53;;
59424;SDS011;45231;44.826;20.312;2023-03-23T11:19:15;15.02;;;6.43;;
59424;SDS011;45231;44.826;20.312;2023-03-23T11:21:47;10.63;;;6.85;;
59424;SDS011;45231;44.826;20.312;2023-03-23T11:24:13;7.85;;;6.15;;
59424;SDS011;45231;44.826;20.312;2023-03-23T11:26:40;13.00;;;6.93;;
59424;SDS011;45231;44.826;20.312;2023-03-23T11:29:10;8.43;;;5.88;;
59424;SDS011;45231;44.826;20.312;2023-03-23T11:31:47;9.90;;;6.68;;
59424;SDS011;45231;44.826;20.312;2023-03-23T11:34:22;10.10;;;6.63;;
59424;SDS011;45231;44.826;20.312;2023-03-23T11:36:58;8.20;;;5.90;;
59424;SDS011;45231;44.826;20.312;2023-03-23T11:39:26;9.13;;;6.03;;
59424;SDS011;45231;44.826;20.312;2023-03-23T11:41:53;8.77;;;6.30;;
59424;SDS011;45231;44.826;20.312;2023-03-23T11:44:20;10.07;;;7.07;;
59424;SDS011;45231;44.826;20.312;2023-03-23T11:52:36;8.32;;;5.70;;
59424;SDS011;45231;44.826;20.312;2023-03-23T11:55:11;11.02;;;7.22;;
59424;SDS011;45231;44.826;20.312;2023-03-23T11:57:38;9.38;;;6.82;;
59424;SDS011;45231;44.826;20.312;2023-03-23T12:07:58;12.25;;;6.53;;
59424;SDS011;45231;44.826;20.312;2023-03-23T12:10:50;10.15;;;6.53;;
59424;SDS011;45231;44.826;20.312;2023-03-23T12:15:42;9.63;;;6.07;;
59424;SDS011;45231;44.826;20.312;2023-03-23T12:30:56;9.20;;;6.45;;
59424;SDS011;45231;44.826;20.312;2023-03-23T12:35:53;11.02;;;7.20;;
59424;SDS011;45231;44.826;20.312;2023-03-23T12:48:29;9.10;;;5.85;;
59424;SDS011;45231;44.826;20.312;2023-03-23T12:53:45;10.65;;;6.13;;
59424;SDS011;45231;44.826;20.312;2023-03-23T12:58:45;18.95;;;5.82;;
59424;SDS011;45231;44.826;20.312;2023-03-23T13:01:14;12.07;;;5.97;;
59424;SDS011;45231;44.826;20.312;2023-03-23T13:08:55;8.18;;;5.10;;
59424;SDS011;45231;44.826;20.312;2023-03-23T13:11:32;12.13;;;5.70;;
59424;SDS011;45231;44.826;20.312;2023-03-23T13:22:08;15.73;;;6.07;;
59424;SDS011;45231;44.826;20.312;2023-03-23T13:24:46;18.70;;;6.43;;
59424;SDS011;45231;44.826;20.312;2023-03-23T13:27:16;9.77;;;6.28;;
59424;SDS011;45231;44.826;20.312;2023-03-23T13:29:45;10.18;;;5.68;;
59424;SDS011;45231;44.826;20.312;2023-03-23T13:32:12;8.55;;;5.65;;
59424;SDS011;45231;44.826;20.312;2023-03-23T13:34:41;9.23;;;5.22;;
59424;SDS011;45231;44.826;20.312;2023-03-23T13:37:12;9.75;;;5.22;;
59424;SDS011;45231;44.826;20.312;2023-03-23T13:47:34;17.90;;;5.85;;
59424;SDS011;45231;44.826;20.312;2023-03-23T13:49:56;9.93;;;5.07;;
59424;SDS011;45231;44.826;20.312;2023-03-23T13:59:47;10.43;;;4.90;;
59424;SDS011;45231;44.826;20.312;2023-03-23T14:02:27;9.02;;;4.78;;
59424;SDS011;45231;44.826;20.312;2023-03-23T14:04:55;10.68;;;5.35;;
59424;SDS011;45231;44.826;20.312;2023-03-23T14:07:21;7.95;;;4.60;;
59424;SDS011;45231;44.826;20.312;2023-03-23T14:09:49;8.43;;;5.13;;
59424;SDS011;45231;44.826;20.312;2023-03-23T14:14:46;7.95;;;4.70;;
59424;SDS011;45231;44.826;20.312;2023-03-23T14:17:14;7.97;;;4.78;;
59424;SDS011;45231;44.826;20.312;2023-03-23T14:19:42;9.43;;;4.65;;
59424;SDS011;45231;44.826;20.312;2023-03-23T14:22:18;6.78;;;4.40;;
59424;SDS011;45231;44.826;20.312;2023-03-23T14:24:45;8.93;;;3.90;;
59424;SDS011;45231;44.826;20.312;2023-03-23T14:29:37;7.15;;;3.78;;
59424;SDS011;45231;44.826;20.312;2023-03-23T14:34:30;6.43;;;3.88;;
59424;SDS011;45231;44.826;20.312;2023-03-23T14:36:57;6.45;;;3.72;;
59424;SDS011;45231;44.826;20.312;2023-03-23T14:39:31;5.97;;;3.28;;
59424;SDS011;45231;44.826;20.312;2023-03-23T14:42:02;7.07;;;3.85;;
59424;SDS011;45231;44.826;20.312;2023-03-23T14:44:35;5.75;;;3.70;;
59424;SDS011;45231;44.826;20.312;2023-03-23T14:47:04;5.70;;;3.33;;
59424;SDS011;45231;44.826;20.312;2023-03-23T14:49:33;6.38;;;3.38;;
59424;SDS011;45231;44.826;20.312;2023-03-23T14:52:03;7.45;;;3.40;;
59424;SDS011;45231;44.826;20.312;2023-03-23T14:54:31;7.90;;;3.95;;
59424;SDS011;45231;44.826;20.312;2023-03-23T14:57:02;8.82;;;3.50;;
59424;SDS011;45231;44.826;20.312;2023-03-23T14:59:28;29.20;;;4.43;;
59424;SDS011;45231;44.826;20.312;2023-03-23T15:01:56;26.23;;;4.70;;
59424;SDS011;45231;44.826;20.312;2023-03-23T15:04:26;21.90;;;4.25;;
59424;SDS011;45231;44.826;20.312;2023-03-23T15:09:20;8.50;;;3.30;;
59424;SDS011;45231;44.826;20.312;2023-03-23T15:12:05;9.52;;;3.35;;
59424;SDS011;45231;44.826;20.312;2023-03-23T15:14:32;5.57;;;3.05;;
59424;SDS011;45231;44.826;20.312;2023-03-23T15:17:00;7.07;;;3.38;;
59424;SDS011;45231;44.826;20.312;2023-03-23T15:19:28;10.23;;;3.40;;
59424;SDS011;45231;44.826;20.312;2023-03-23T15:22:13;9.05;;;3.58;;
59424;SDS011;45231;44.826;20.312;2023-03-23T15:24:40;10.70;;;3.80;;
59424;SDS011;45231;44.826;20.312;2023-03-23T15:30:27;8.80;;;3.53;;
59424;SDS011;45231;44.826;20.312;2023-03-23T15:32:38;6.32;;;3.65;;
59424;SDS011;45231;44.826;20.312;2023-03-23T15:35:11;8.00;;;4.20;;
59424;SDS011;45231;44.826;20.312;2023-03-23T15:37:40;8.00;;;3.85;;
59424;SDS011;45231;44.826;20.312;2023-03-23T15:40:13;6.25;;;3.67;;
59424;SDS011;45231;44.826;20.312;2023-03-23T15:42:40;8.35;;;4.72;;
59424;SDS011;45231;44.826;20.312;2023-03-23T15:52:40;8.60;;;5.75;;
59424;SDS011;45231;44.826;20.312;2023-03-23T15:55:23;9.93;;;6.20;;
59424;SDS011;45231;44.826;20.312;2023-03-23T15:57:50;11.15;;;5.80;;
59424;SDS011;45231;44.826;20.312;2023-03-23T16:00:17;12.85;;;5.60;;
59424;SDS011;45231;44.826;20.312;2023-03-23T16:02:45;13.60;;;5.75;;
59424;SDS011;45231;44.826;20.312;2023-03-23T16:05:11;15.80;;;6.18;;
59424;SDS011;45231;44.826;20.312;2023-03-23T16:07:37;12.07;;;6.30;;
59424;SDS011;45231;44.826;20.312;2023-03-23T16:12:30;12.40;;;6.00;;
59424;SDS011;45231;44.826;20.312;2023-03-23T16:17:22;10.18;;;6.40;;
59424;SDS011;45231;44.826;20.312;2023-03-23T16:19:48;11.35;;;6.10;;
59424;SDS011;45231;44.826;20.312;2023-03-23T16:22:14;10.80;;;6.78;;
59424;SDS011;45231;44.826;20.312;2023-03-23T16:24:40;16.20;;;7.90;;
59424;SDS011;45231;44.826;20.312;2023-03-23T16:27:12;11.98;;;7.13;;
59424;SDS011;45231;44.826;20.312;2023-03-23T16:29:38;13.35;;;7.78;;
59424;SDS011;45231;44.826;20.312;2023-03-23T16:32:04;13.27;;;7.40;;
59424;SDS011;45231;44.826;20.312;2023-03-23T16:34:30;15.60;;;7.13;;
59424;SDS011;45231;44.826;20.312;2023-03-23T16:36:58;16.08;;;7.35;;
59424;SDS011;45231;44.826;20.312;2023-03-23T16:39:24;12.65;;;6.95;;
59424;SDS011;45231;44.826;20.312;2023-03-23T16:41:50;11.48;;;6.57;;
59424;SDS011;45231;44.826;20.312;2023-03-23T16:44:16;10.80;;;6.85;;
59424;SDS011;45231;44.826;20.312;2023-03-23T16:46:42;12.23;;;6.82;;
59424;SDS011;45231;44.826;20.312;2023-03-23T16:49:08;16.65;;;8.95;;
59424;SDS011;45231;44.826;20.312;2023-03-23T16:51:34;16.00;;;9.82;;
59424;SDS011;45231;44.826;20.312;2023-03-23T16:54:00;19.25;;;11.23;;
59424;SDS011;45231;44.826;20.312;2023-03-23T16:56:26;17.27;;;11.38;;
59424;SDS011;45231;44.826;20.312;2023-03-23T16:58:52;18.48;;;10.32;;
59424;SDS011;45231;44.826;20.312;2023-03-23T17:01:18;16.60;;;11.25;;
59424;SDS011;45231;44.826;20.312;2023-03-23T17:03:45;16.65;;;10.55;;
59424;SDS011;45231;44.826;20.312;2023-03-23T17:06:11;21.40;;;10.93;;
59424;SDS011;45231;44.826;20.312;2023-03-23T17:08:37;17.52;;;11.48;;
59424;SDS011;45231;44.826;20.312;2023-03-23T17:11:03;20.63;;;11.70;;
59424;SDS011;45231;44.826;20.312;2023-03-23T17:13:29;21.15;;;11.43;;
59424;SDS011;45231;44.826;20.312;2023-03-23T17:15:55;22.35;;;11.13;;
59424;SDS011;45231;44.826;20.312;2023-03-23T17:18:22;22.40;;;10.23;;
59424;SDS011;45231;44.826;20.312;2023-03-23T17:20:49;22.25;;;10.90;;
59424;SDS011;45231;44.826;20.312;2023-03-23T17:23:15;19.80;;;11.07;;
59424;SDS011;45231;44.826;20.312;2023-03-23T17:25:42;19.98;;;12.20;;
59424;SDS011;45231;44.826;20.312;2023-03-23T17:28:08;19.02;;;12.13;;
59424;SDS011;45231;44.826;20.312;2023-03-23T17:30:35;25.80;;;13.48;;
59424;SDS011;45231;44.826;20.312;2023-03-23T17:33:04;19.05;;;12.90;;